Time;durP1;ratioP1;P1;durP2;ratioP2;P2;SDS_P1;SDS_P2;PMS_P1;PMS_P2;Temp;Humidity;BMP_temperature;BMP_pressure;BME280_temperature;BME280_humidity;BME280_pressure;Samples;Min_cycle;Max_cycle;Signal;HPM_P1;HPM_P2
2023/10/25 00:01:53;;;;;;;7.53;4.00;;;;;;;;;;5000860;28;20057;-74
2023/10/25 00:04:19;;;;;;;9.18;4.03;;;;;;;;;;5023837;28;20040;-74
2023/10/25 00:06:44;;;;;;;10.90;4.23;;;;;;;;;;5010434;28;20033;-73
2023/10/25 00:09:09;;;;;;;8.90;3.80;;;;;;;;;;4987838;28;20403;-74
2023/10/25 00:11:34;;;;;;;10.05;4.05;;;;;;;;;;5019043;28;20069;-73
2023/10/25 00:14:00;;;;;;;7.90;4.00;;;;;;;;;;5025512;28;20136;-73
2023/10/25 00:16:25;;;;;;;11.32;3.90;;;;;;;;;;5008413;28;20058;-75
2023/10/25 00:18:50;;;;;;;8.40;4.20;;;;;;;;;;4987500;28;20046;-74
2023/10/25 00:21:15;;;;;;;7.13;3.72;;;;;;;;;;5000490;28;20075;-74
2023/10/25 00:23:41;;;;;;;8.63;3.73;;;;;;;;;;5025026;28;20041;-73
2023/10/25 00:26:06;;;;;;;8.27;3.90;;;;;;;;;;5017590;28;20293;-74
2023/10/25 00:28:31;;;;;;;11.03;4.27;;;;;;;;;;5003288;28;20628;-74
2023/10/25 00:30:56;;;;;;;8.90;3.53;;;;;;;;;;5024831;28;20280;-74
2023/10/25 00:33:21;;;;;;;10.50;3.40;;;;;;;;;;5024405;28;20042;-74
2023/10/25 00:35:47;;;;;;;6.43;3.37;;;;;;;;;;5006874;28;20037;-73
2023/10/25 00:38:12;;;;;;;5.93;3.60;;;;;;;;;;5023758;28;20288;-73
2023/10/25 00:40:38;;;;;;;9.30;3.60;;;;;;;;;;5007242;28;20343;-73
2023/10/25 00:43:16;;;;;;;7.60;3.40;;;;;;;;;;5024462;28;20504;-73
2023/10/25 00:46:01;;;;;;;9.50;3.60;;;;;;;;;;5003342;28;20045;-72
2023/10/25 00:48:27;;;;;;;8.15;3.72;;;;;;;;;;4987060;28;20038;-73
2023/10/25 00:50:52;;;;;;;8.77;3.65;;;;;;;;;;4995819;28;20427;-73
2023/10/25 00:53:17;;;;;;;6.00;3.17;;;;;;;;;;5007251;28;20075;-73
2023/10/25 00:55:42;;;;;;;7.50;3.53;;;;;;;;;;5004549;28;20280;-73
2023/10/25 00:58:08;;;;;;;7.07;3.43;;;;;;;;;;5004820;28;20018;-75
2023/10/25 01:00:33;;;;;;;7.53;3.50;;;;;;;;;;4992226;28;20041;-75
2023/10/25 01:02:59;;;;;;;6.68;3.30;;;;;;;;;;5003950;28;20307;-72
2023/10/25 01:05:24;;;;;;;8.02;3.60;;;;;;;;;;5000856;28;20033;-75
2023/10/25 01:07:49;;;;;;;9.13;3.70;;;;;;;;;;5022719;28;20036;-76
2023/10/25 01:10:14;;;;;;;6.80;3.50;;;;;;;;;;5021576;28;20037;-73
2023/10/25 01:12:40;;;;;;;7.10;3.50;;;;;;;;;;5023407;28;20037;-73
2023/10/25 01:15:05;;;;;;;8.13;3.40;;;;;;;;;;5020724;28;20314;-73
2023/10/25 01:17:30;;;;;;;7.72;3.42;;;;;;;;;;5005959;28;20033;-74
2023/10/25 01:19:56;;;;;;;7.73;3.20;;;;;;;;;;4989410;28;20067;-74
2023/10/25 01:22:24;;;;;;;8.35;3.45;;;;;;;;;;5007033;28;20406;-75
2023/10/25 01:24:50;;;;;;;7.32;3.30;;;;;;;;;;5007003;28;20049;-74
2023/10/25 01:27:16;;;;;;;6.33;3.00;;;;;;;;;;5019224;28;20133;-75
2023/10/25 01:29:41;;;;;;;8.00;3.53;;;;;;;;;;5006523;28;20057;-74
2023/10/25 01:32:06;;;;;;;8.52;3.58;;;;;;;;;;5024189;28;20057;-75
2023/10/25 01:34:32;;;;;;;7.15;3.20;;;;;;;;;;5006220;28;20053;-73
2023/10/25 01:36:57;;;;;;;6.00;3.22;;;;;;;;;;4999809;28;20041;-73
2023/10/25 01:39:22;;;;;;;7.23;3.13;;;;;;;;;;5014874;28;20037;-73
2023/10/25 01:41:47;;;;;;;7.27;3.27;;;;;;;;;;5027218;28;20332;-74
2023/10/25 01:44:12;;;;;;;7.43;3.23;;;;;;;;;;5038696;28;20268;-74
2023/10/25 01:46:38;;;;;;;8.67;3.03;;;;;;;;;;5042627;28;20045;-74
2023/10/25 01:49:03;;;;;;;7.38;3.55;;;;;;;;;;5034145;28;20049;-74
2023/10/25 01:51:28;;;;;;;7.32;3.30;;;;;;;;;;5035524;28;20091;-74
2023/10/25 01:53:54;;;;;;;7.33;3.40;;;;;;;;;;5014136;28;20041;-74
2023/10/25 01:56:19;;;;;;;6.63;3.00;;;;;;;;;;5011769;28;20042;-74
2023/10/25 01:58:44;;;;;;;6.60;3.00;;;;;;;;;;5003801;28;20840;-74
2023/10/25 02:01:10;;;;;;;6.53;3.00;;;;;;;;;;5006414;28;20299;-74
2023/10/25 02:03:35;;;;;;;6.85;3.20;;;;;;;;;;5010684;28;20037;-74
2023/10/25 02:06:09;;;;;;;6.90;3.00;;;;;;;;;;5011126;28;20527;-74
2023/10/25 02:08:34;;;;;;;8.98;3.45;;;;;;;;;;5021937;28;20296;-73
2023/10/25 02:10:59;;;;;;;7.90;3.40;;;;;;;;;;5009830;28;20441;-75
2023/10/25 02:13:25;;;;;;;7.97;3.20;;;;;;;;;;5009979;28;20563;-74
2023/10/25 02:15:50;;;;;;;6.40;3.08;;;;;;;;;;5010363;28;20690;-74
2023/10/25 02:18:16;;;;;;;5.90;3.10;;;;;;;;;;5008957;28;20029;-73
2023/10/25 02:20:41;;;;;;;8.82;3.10;;;;;;;;;;4998019;28;20280;-73
2023/10/25 02:23:06;;;;;;;6.30;2.83;;;;;;;;;;5008113;28;20030;-74
2023/10/25 02:25:31;;;;;;;6.33;3.20;;;;;;;;;;4997431;28;20280;-73
2023/10/25 02:27:56;;;;;;;8.43;2.97;;;;;;;;;;4998554;28;20045;-74
2023/10/25 02:30:22;;;;;;;7.23;3.40;;;;;;;;;;4990217;28;20277;-73
2023/10/25 02:32:47;;;;;;;7.37;3.23;;;;;;;;;;4973267;28;20121;-73
2023/10/25 02:35:12;;;;;;;5.87;2.90;;;;;;;;;;4991019;28;20273;-74
2023/10/25 02:37:38;;;;;;;8.13;3.42;;;;;;;;;;5019687;28;20663;-74
2023/10/25 02:40:04;;;;;;;5.87;2.77;;;;;;;;;;5022384;28;20049;-73
2023/10/25 02:42:29;;;;;;;7.70;2.95;;;;;;;;;;5027022;28;20312;-74
2023/10/25 02:44:54;;;;;;;7.68;2.80;;;;;;;;;;5009504;28;20138;-74
2023/10/25 02:47:20;;;;;;;8.95;3.63;;;;;;;;;;5022933;28;20057;-73
2023/10/25 02:49:45;;;;;;;7.00;2.93;;;;;;;;;;5005209;28;20041;-75
2023/10/25 02:52:10;;;;;;;5.53;3.10;;;;;;;;;;5025967;28;20284;-73
2023/10/25 02:54:35;;;;;;;7.65;2.75;;;;;;;;;;5027090;28;20045;-74
2023/10/25 02:57:01;;;;;;;8.65;3.33;;;;;;;;;;5009823;28;20034;-74
2023/10/25 02:59:26;;;;;;;6.43;3.00;;;;;;;;;;5004407;28;20041;-74
2023/10/25 03:01:51;;;;;;;7.80;2.90;;;;;;;;;;5008695;28;20592;-76
2023/10/25 03:04:16;;;;;;;11.03;3.40;;;;;;;;;;4992582;28;20503;-74
2023/10/25 03:06:42;;;;;;;7.35;2.95;;;;;;;;;;5007340;28;20320;-74
2023/10/25 03:09:07;;;;;;;7.03;2.87;;;;;;;;;;5008055;28;20030;-74
2023/10/25 03:11:32;;;;;;;7.80;2.70;;;;;;;;;;5008827;28;20033;-74
2023/10/25 03:13:57;;;;;;;7.83;3.00;;;;;;;;;;5026220;28;20287;-75
2023/10/25 03:16:22;;;;;;;7.10;3.00;;;;;;;;;;5026518;28;20288;-74
2023/10/25 03:18:48;;;;;;;7.60;3.07;;;;;;;;;;5024352;28;20037;-74
2023/10/25 03:21:13;;;;;;;8.43;2.97;;;;;;;;;;5026353;28;20284;-74
2023/10/25 03:23:38;;;;;;;6.65;3.05;;;;;;;;;;5026232;28;20276;-74
2023/10/25 03:26:07;;;;;;;7.50;2.70;;;;;;;;;;5008593;28;20107;-74
2023/10/25 03:28:32;;;;;;;6.50;2.70;;;;;;;;;;5015166;28;20037;-75
2023/10/25 03:30:57;;;;;;;8.48;3.00;;;;;;;;;;5007495;28;20049;-75
2023/10/25 03:33:23;;;;;;;8.85;3.00;;;;;;;;;;5025780;28;20716;-74
2023/10/25 03:35:52;;;;;;;7.53;3.03;;;;;;;;;;5020113;28;20392;-74
2023/10/25 03:38:17;;;;;;;7.53;2.83;;;;;;;;;;5014683;28;20291;-75
2023/10/25 03:40:44;;;;;;;5.90;2.93;;;;;;;;;;5002537;28;20124;-74
2023/10/25 03:43:09;;;;;;;10.15;2.88;;;;;;;;;;5025914;28;20848;-75
2023/10/25 03:45:34;;;;;;;7.33;2.83;;;;;;;;;;5007558;28;20042;-74
2023/10/25 03:48:00;;;;;;;7.27;2.70;;;;;;;;;;5004073;28;20104;-74
2023/10/25 03:50:25;;;;;;;6.80;2.63;;;;;;;;;;4987895;28;20042;-75
2023/10/25 03:52:50;;;;;;;7.63;2.63;;;;;;;;;;5004763;28;20099;-75
2023/10/25 03:55:15;;;;;;;8.43;3.07;;;;;;;;;;5007695;28;20762;-74
2023/10/25 03:57:40;;;;;;;7.13;3.03;;;;;;;;;;5007384;28;20534;-75
2023/10/25 04:00:06;;;;;;;7.73;2.97;;;;;;;;;;4997103;28;20797;-74
2023/10/25 04:02:31;;;;;;;8.32;3.08;;;;;;;;;;5013691;28;20385;-74
2023/10/25 04:04:57;;;;;;;6.57;2.80;;;;;;;;;;5007168;28;20041;-75
2023/10/25 04:07:22;;;;;;;7.43;3.15;;;;;;;;;;5023977;28;20033;-74
2023/10/25 04:09:48;;;;;;;9.40;3.03;;;;;;;;;;4991817;28;20042;-74
2023/10/25 04:12:13;;;;;;;10.07;2.70;;;;;;;;;;5005346;28;20042;-74
2023/10/25 04:14:42;;;;;;;8.67;3.13;;;;;;;;;;5009218;28;20896;-74
2023/10/25 04:17:08;;;;;;;6.10;3.10;;;;;;;;;;5007986;28;20280;-74
2023/10/25 04:19:33;;;;;;;6.32;3.20;;;;;;;;;;5014347;28;20852;-74
2023/10/25 04:22:00;;;;;;;8.47;3.17;;;;;;;;;;5006359;28;20116;-74
2023/10/25 04:24:25;;;;;;;10.65;3.55;;;;;;;;;;4988529;28;20076;-75
2023/10/25 04:26:50;;;;;;;10.93;3.43;;;;;;;;;;5004725;28;20126;-75
2023/10/25 04:29:15;;;;;;;7.70;3.47;;;;;;;;;;4999202;28;20056;-74
2023/10/25 04:31:40;;;;;;;5.47;3.17;;;;;;;;;;5024545;28;20041;-74
2023/10/25 04:34:06;;;;;;;9.47;3.30;;;;;;;;;;5024706;28;20284;-74
2023/10/25 04:36:31;;;;;;;7.33;3.53;;;;;;;;;;5025088;28;20025;-74
2023/10/25 04:38:56;;;;;;;5.93;3.10;;;;;;;;;;5017730;28;20050;-73
2023/10/25 04:41:21;;;;;;;9.57;3.47;;;;;;;;;;5016831;28;20305;-74
2023/10/25 04:43:46;;;;;;;7.87;3.50;;;;;;;;;;5023534;28;20786;-74
2023/10/25 04:46:13;;;;;;;8.23;3.10;;;;;;;;;;5024638;28;20570;-72
2023/10/25 04:48:39;;;;;;;7.32;3.58;;;;;;;;;;5020935;28;20246;-74
2023/10/25 04:51:04;;;;;;;8.67;2.90;;;;;;;;;;5030829;28;20025;-74
2023/10/25 04:53:29;;;;;;;9.07;3.45;;;;;;;;;;5025050;28;20051;-74
2023/10/25 04:55:54;;;;;;;10.17;4.07;;;;;;;;;;5024264;28;20041;-75
2023/10/25 04:58:20;;;;;;;9.57;3.60;;;;;;;;;;5026091;28;20303;-75
2023/10/25 05:00:46;;;;;;;12.57;4.20;;;;;;;;;;5019381;28;20084;-74
2023/10/25 05:03:11;;;;;;;12.05;4.65;;;;;;;;;;5002205;28;20038;-74
2023/10/25 05:05:39;;;;;;;12.57;5.00;;;;;;;;;;5006224;28;20029;-75
2023/10/25 05:08:05;;;;;;;10.18;4.30;;;;;;;;;;5005877;28;20087;-74
2023/10/25 05:10:30;;;;;;;16.27;5.07;;;;;;;;;;5000159;28;20373;-74
2023/10/25 05:12:56;;;;;;;16.67;5.50;;;;;;;;;;5004283;28;20053;-74
2023/10/25 05:15:23;;;;;;;15.57;4.85;;;;;;;;;;5023587;28;20042;-74
2023/10/25 05:17:49;;;;;;;15.75;4.57;;;;;;;;;;5006600;28;20037;-74
2023/10/25 05:20:14;;;;;;;15.63;4.95;;;;;;;;;;5015054;28;20048;-75
2023/10/25 05:22:40;;;;;;;14.65;5.78;;;;;;;;;;5031489;28;20045;-75
2023/10/25 05:25:06;;;;;;;14.40;5.80;;;;;;;;;;5013420;28;20075;-75
2023/10/25 05:27:32;;;;;;;9.48;4.57;;;;;;;;;;5009721;28;20040;-74
2023/10/25 05:29:59;;;;;;;13.57;5.28;;;;;;;;;;5024437;28;20290;-74
2023/10/25 05:32:24;;;;;;;13.57;5.07;;;;;;;;;;5027268;28;20116;-76
2023/10/25 05:34:50;;;;;;;11.73;5.20;;;;;;;;;;4994947;28;20132;-74
2023/10/25 05:37:15;;;;;;;14.23;5.10;;;;;;;;;;4990135;28;20037;-74
2023/10/25 05:39:41;;;;;;;14.00;4.38;;;;;;;;;;5002957;28;20480;-75
2023/10/25 05:42:07;;;;;;;12.15;4.55;;;;;;;;;;4992645;28;20147;-75
2023/10/25 05:44:32;;;;;;;13.05;4.88;;;;;;;;;;5014406;28;20038;-75
2023/10/25 05:46:57;;;;;;;12.68;4.85;;;;;;;;;;5001643;28;20107;-79
2023/10/25 05:49:23;;;;;;;12.10;4.80;;;;;;;;;;4997584;28;20042;-74
2023/10/25 05:51:48;;;;;;;14.82;4.85;;;;;;;;;;4996997;28;20843;-75
2023/10/25 05:54:14;;;;;;;14.98;5.07;;;;;;;;;;5001454;28;20149;-75
2023/10/25 05:56:39;;;;;;;15.63;4.85;;;;;;;;;;4995324;28;20604;-76
2023/10/25 05:59:04;;;;;;;13.20;4.60;;;;;;;;;;4979852;28;20186;-74
2023/10/25 06:01:43;;;;;;;13.10;4.95;;;;;;;;;;5016499;28;20386;-71
2023/10/25 06:04:08;;;;;;;13.75;5.30;;;;;;;;;;5024933;28;20104;-73
2023/10/25 06:06:34;;;;;;;16.80;5.68;;;;;;;;;;5014443;28;20428;-73
2023/10/25 06:08:59;;;;;;;17.83;5.50;;;;;;;;;;5019074;28;20555;-72
2023/10/25 06:11:25;;;;;;;17.35;5.18;;;;;;;;;;5002225;28;20300;-70
2023/10/25 06:13:50;;;;;;;15.90;5.82;;;;;;;;;;5020241;28;20082;-72
2023/10/25 06:16:15;;;;;;;17.23;5.65;;;;;;;;;;5012496;28;20512;-72
2023/10/25 06:18:41;;;;;;;16.60;5.35;;;;;;;;;;5031854;28;20056;-72
2023/10/25 06:21:06;;;;;;;14.18;5.60;;;;;;;;;;5019085;28;20681;-74
2023/10/25 06:23:33;;;;;;;17.13;5.40;;;;;;;;;;5029547;28;20033;-71
2023/10/25 06:26:00;;;;;;;15.07;5.53;;;;;;;;;;5042076;28;20034;-74
2023/10/25 06:28:26;;;;;;;16.85;6.00;;;;;;;;;;5041749;28;20053;-74
2023/10/25 06:30:51;;;;;;;19.17;6.15;;;;;;;;;;5046172;28;20053;-78
2023/10/25 06:33:18;;;;;;;17.10;5.93;;;;;;;;;;5023643;28;20423;-72
2023/10/25 06:35:45;;;;;;;18.08;6.47;;;;;;;;;;5011709;28;20049;-74
2023/10/25 06:38:10;;;;;;;16.42;6.40;;;;;;;;;;5027958;28;20073;-69
2023/10/25 06:40:36;;;;;;;19.95;6.53;;;;;;;;;;5011198;28;20148;-70
2023/10/25 06:43:02;;;;;;;24.35;7.15;;;;;;;;;;5025182;28;20049;-70
2023/10/25 06:45:27;;;;;;;14.88;6.07;;;;;;;;;;5028725;28;20036;-73
2023/10/25 06:47:54;;;;;;;19.52;5.78;;;;;;;;;;5009163;28;20034;-72
2023/10/25 06:50:21;;;;;;;12.85;5.57;;;;;;;;;;5011831;28;20037;-72
2023/10/25 06:52:48;;;;;;;15.55;6.40;;;;;;;;;;5017269;28;20033;-73
2023/10/25 06:55:14;;;;;;;15.13;5.60;;;;;;;;;;5005606;28;20107;-72
2023/10/25 06:57:40;;;;;;;13.55;5.65;;;;;;;;;;5016532;28;20121;-71
2023/10/25 07:00:08;;;;;;;16.05;5.80;;;;;;;;;;4992541;28;20116;-71
2023/10/25 07:02:38;;;;;;;16.08;5.63;;;;;;;;;;5024772;28;20037;-71
2023/10/25 07:05:08;;;;;;;12.23;5.33;;;;;;;;;;5020156;28;20064;-71
2023/10/25 07:07:34;;;;;;;15.95;5.60;;;;;;;;;;5017466;28;20033;-72
2023/10/25 07:10:00;;;;;;;16.08;5.53;;;;;;;;;;5019524;28;20437;-71
2023/10/25 07:12:25;;;;;;;13.25;5.53;;;;;;;;;;5019295;28;20037;-71
2023/10/25 07:14:50;;;;;;;16.50;5.45;;;;;;;;;;4986469;28;20033;-72
2023/10/25 07:17:16;;;;;;;15.57;5.88;;;;;;;;;;4987918;28;20033;-71
2023/10/25 07:19:43;;;;;;;17.65;6.10;;;;;;;;;;5013124;28;20054;-72
2023/10/25 07:22:09;;;;;;;12.20;4.95;;;;;;;;;;5012661;28;20033;-71
2023/10/25 07:24:34;;;;;;;14.75;5.43;;;;;;;;;;5025236;28;20049;-70
2023/10/25 07:27:00;;;;;;;16.67;5.55;;;;;;;;;;5025882;28;20184;-69
2023/10/25 07:29:25;;;;;;;12.25;4.80;;;;;;;;;;5021449;28;20029;-73
2023/10/25 07:31:51;;;;;;;13.50;5.20;;;;;;;;;;5007951;28;20091;-72
2023/10/25 07:34:16;;;;;;;15.40;4.97;;;;;;;;;;5013142;28;20394;-72
2023/10/25 07:36:42;;;;;;;10.63;4.90;;;;;;;;;;5004025;28;20088;-72
2023/10/25 07:39:07;;;;;;;16.07;4.80;;;;;;;;;;4996024;28;20357;-72
2023/10/25 07:41:33;;;;;;;15.05;5.28;;;;;;;;;;5024980;28;20276;-72
2023/10/25 07:44:00;;;;;;;11.95;4.65;;;;;;;;;;4999190;28;20032;-72
2023/10/25 07:46:26;;;;;;;15.90;4.72;;;;;;;;;;4997183;28;20522;-72
2023/10/25 07:48:51;;;;;;;12.68;5.05;;;;;;;;;;5016339;28;20026;-71
2023/10/25 07:51:16;;;;;;;11.82;5.18;;;;;;;;;;5020601;28;20032;-70
2023/10/25 07:54:14;;;;;;;14.60;4.78;;;;;;;;;;5006759;28;20021;-73
2023/10/25 07:56:52;;;;;;;11.23;4.60;;;;;;;;;;5000247;28;20061;-71
2023/10/25 07:59:20;;;;;;;10.98;4.60;;;;;;;;;;5016575;28;20314;-72
2023/10/25 08:01:46;;;;;;;12.18;4.80;;;;;;;;;;4975172;28;20042;-72
2023/10/25 08:04:11;;;;;;;14.20;4.72;;;;;;;;;;5009485;28;20045;-72
2023/10/25 08:06:36;;;;;;;12.47;5.03;;;;;;;;;;5029156;28;20033;-72
2023/10/25 08:09:02;;;;;;;12.75;4.50;;;;;;;;;;5026144;28;20307;-72
2023/10/25 08:11:28;;;;;;;14.38;4.68;;;;;;;;;;5013387;28;20095;-71
2023/10/25 08:13:53;;;;;;;12.65;5.28;;;;;;;;;;5023011;28;20428;-72
2023/10/25 08:16:18;;;;;;;15.33;4.53;;;;;;;;;;5028224;28;20037;-71
2023/10/25 08:18:43;;;;;;;14.53;4.47;;;;;;;;;;5028117;28;20040;-72
2023/10/25 08:21:12;;;;;;;13.63;4.32;;;;;;;;;;5028452;28;20029;-72
2023/10/25 08:23:38;;;;;;;16.20;5.20;;;;;;;;;;5029674;28;20088;-72
2023/10/25 08:26:04;;;;;;;15.02;4.78;;;;;;;;;;5026216;28;20037;-71
2023/10/25 08:28:29;;;;;;;15.73;5.00;;;;;;;;;;5026549;28;20041;-71
2023/10/25 08:30:54;;;;;;;16.70;5.03;;;;;;;;;;5004065;28;20037;-72
2023/10/25 08:33:19;;;;;;;17.27;4.80;;;;;;;;;;4972074;28;20327;-72
2023/10/25 08:35:44;;;;;;;10.73;4.57;;;;;;;;;;5006349;28;20311;-72
2023/10/25 08:38:10;;;;;;;18.20;5.22;;;;;;;;;;5000445;28;20119;-72
2023/10/25 08:40:40;;;;;;;10.23;4.38;;;;;;;;;;5023796;28;20045;-71
2023/10/25 08:43:05;;;;;;;16.35;5.22;;;;;;;;;;4982778;28;20033;-71
2023/10/25 08:45:33;;;;;;;15.07;5.07;;;;;;;;;;5025148;28;20064;-70
2023/10/25 08:47:58;;;;;;;16.98;4.93;;;;;;;;;;5024962;28;20361;-69
2023/10/25 08:50:23;;;;;;;17.20;4.73;;;;;;;;;;5024865;28;20037;-70
2023/10/25 08:52:49;;;;;;;15.33;4.83;;;;;;;;;;4990611;28;20100;-71
2023/10/25 08:55:15;;;;;;;16.08;5.05;;;;;;;;;;5010898;28;20292;-71
2023/10/25 08:57:40;;;;;;;17.42;5.10;;;;;;;;;;5012562;28;20121;-71
2023/10/25 09:00:09;;;;;;;19.27;5.60;;;;;;;;;;5011274;28;20044;-71
2023/10/25 09:02:37;;;;;;;13.00;4.43;;;;;;;;;;5009036;28;20305;-72
2023/10/25 09:05:03;;;;;;;15.25;4.57;;;;;;;;;;4983466;28;20422;-71
2023/10/25 09:07:31;;;;;;;13.38;5.32;;;;;;;;;;5019395;28;20172;-72
2023/10/25 09:09:57;;;;;;;17.63;5.20;;;;;;;;;;5010365;28;20040;-71
2023/10/25 09:12:22;;;;;;;17.95;6.18;;;;;;;;;;4993365;28;20542;-72
2023/10/25 09:14:48;;;;;;;17.67;6.72;;;;;;;;;;5010915;28;20559;-72
2023/10/25 09:17:13;;;;;;;19.75;5.95;;;;;;;;;;4996306;28;20038;-72
2023/10/25 09:19:48;;;;;;;22.15;6.75;;;;;;;;;;4998013;28;20056;-71
2023/10/25 09:22:27;;;;;;;18.98;6.70;;;;;;;;;;4992594;28;20030;-72
2023/10/25 09:24:54;;;;;;;22.40;6.47;;;;;;;;;;4998663;28;20071;-72
2023/10/25 09:27:20;;;;;;;17.05;6.60;;;;;;;;;;4978981;28;20034;-72
2023/10/25 09:29:45;;;;;;;18.02;6.95;;;;;;;;;;4992806;28;20041;-72
2023/10/25 09:32:10;;;;;;;15.63;6.15;;;;;;;;;;5006352;28;20116;-72
2023/10/25 09:34:36;;;;;;;17.30;6.50;;;;;;;;;;5011095;28;20084;-72
2023/10/25 09:37:01;;;;;;;18.27;6.05;;;;;;;;;;4999053;28;20072;-72
2023/10/25 09:39:26;;;;;;;16.95;5.53;;;;;;;;;;5011050;28;20226;-75
2023/10/25 09:41:52;;;;;;;15.43;5.57;;;;;;;;;;4994274;28;20034;-78
2023/10/25 09:44:18;;;;;;;16.55;5.57;;;;;;;;;;4994238;28;20293;-79
2023/10/25 09:46:44;;;;;;;16.25;5.93;;;;;;;;;;4982948;28;20045;-79
2023/10/25 09:49:10;;;;;;;15.02;5.53;;;;;;;;;;5001925;28;20423;-85
2023/10/25 09:51:56;;;;;;;17.05;5.68;;;;;;;;;;4994566;28;20041;-80
2023/10/25 09:54:34;;;;;;;15.50;5.47;;;;;;;;;;5013460;28;20049;-78
2023/10/25 09:57:01;;;;;;;18.38;5.43;;;;;;;;;;4999418;28;20038;-79
2023/10/25 09:59:27;;;;;;;14.38;5.38;;;;;;;;;;4992180;28;20108;-74
2023/10/25 10:01:53;;;;;;;16.77;5.28;;;;;;;;;;4992548;28;20116;-74
2023/10/25 10:04:27;;;;;;;15.73;4.90;;;;;;;;;;4993704;28;20014;-74
2023/10/25 10:06:52;;;;;;;13.43;5.18;;;;;;;;;;4994320;28;20507;-73
2023/10/25 10:09:36;;;;;;;13.98;4.68;;;;;;;;;;5015154;28;20033;-73
2023/10/25 10:12:05;;;;;;;12.13;4.70;;;;;;;;;;4996532;28;20038;-73
2023/10/25 10:14:37;;;;;;;15.80;4.95;;;;;;;;;;5001805;28;20041;-73
2023/10/25 10:17:03;;;;;;;14.52;4.88;;;;;;;;;;4995995;28;20042;-73
2023/10/25 10:19:32;;;;;;;10.93;4.35;;;;;;;;;;5001231;28;20085;-74
2023/10/25 10:22:07;;;;;;;13.68;4.10;;;;;;;;;;4996415;28;20033;-73
2023/10/25 10:24:40;;;;;;;15.48;5.05;;;;;;;;;;5000777;28;20045;-74
2023/10/25 10:27:05;;;;;;;20.88;5.07;;;;;;;;;;5001246;28;20499;-72
2023/10/25 10:29:33;;;;;;;23.27;5.20;;;;;;;;;;5001449;28;20038;-72
2023/10/25 10:31:59;;;;;;;19.27;4.95;;;;;;;;;;5014513;28;20779;-74
2023/10/25 10:34:43;;;;;;;15.57;5.10;;;;;;;;;;4985189;28;20065;-77
2023/10/25 10:37:09;;;;;;;19.30;4.75;;;;;;;;;;5015767;28;20116;-72
2023/10/25 10:39:35;;;;;;;29.50;5.22;;;;;;;;;;5007830;28;20433;-71
2023/10/25 10:42:01;;;;;;;29.17;4.88;;;;;;;;;;5001155;28;20112;-71
2023/10/25 10:44:27;;;;;;;26.23;5.15;;;;;;;;;;5014871;28;20855;-70
2023/10/25 10:46:54;;;;;;;24.00;4.68;;;;;;;;;;5013139;28;20564;-70
2023/10/25 10:49:20;;;;;;;25.77;4.78;;;;;;;;;;5001590;28;20025;-71
2023/10/25 10:51:45;;;;;;;35.90;5.40;;;;;;;;;;5015254;28;20022;-71
2023/10/25 10:54:11;;;;;;;35.93;5.03;;;;;;;;;;4994995;28;20030;-69
2023/10/25 10:56:36;;;;;;;32.80;5.25;;;;;;;;;;5007354;28;20146;-70
2023/10/25 10:59:01;;;;;;;31.97;5.13;;;;;;;;;;5001252;28;20545;-70
2023/10/25 11:01:27;;;;;;;31.98;5.10;;;;;;;;;;5014299;28;20290;-71
2023/10/25 11:03:55;;;;;;;32.17;5.22;;;;;;;;;;5015583;28;20113;-71
2023/10/25 11:06:24;;;;;;;29.40;5.15;;;;;;;;;;4994742;28;20191;-71
2023/10/25 11:08:49;;;;;;;35.47;6.18;;;;;;;;;;5015207;28;20030;-71
2023/10/25 11:11:14;;;;;;;36.17;5.40;;;;;;;;;;5013014;28;20052;-70
2023/10/25 11:13:40;;;;;;;34.45;5.28;;;;;;;;;;5012714;28;20281;-69
2023/10/25 11:16:11;;;;;;;36.00;5.87;;;;;;;;;;5000835;28;20033;-71
2023/10/25 11:18:36;;;;;;;36.05;5.95;;;;;;;;;;5012224;28;20277;-70
2023/10/25 11:21:01;;;;;;;38.10;6.05;;;;;;;;;;5013923;28;20599;-71
2023/10/25 11:23:27;;;;;;;34.95;5.88;;;;;;;;;;5014045;28;20037;-71
2023/10/25 11:25:52;;;;;;;32.85;4.93;;;;;;;;;;5000152;28;20286;-70
2023/10/25 11:28:18;;;;;;;29.05;5.35;;;;;;;;;;5012120;28;20041;-70
2023/10/25 11:30:44;;;;;;;28.80;4.90;;;;;;;;;;5000402;28;20063;-70
2023/10/25 11:33:09;;;;;;;31.60;5.13;;;;;;;;;;4994069;28;20611;-72
2023/10/25 11:35:36;;;;;;;27.63;4.70;;;;;;;;;;4999680;28;20041;-70
2023/10/25 11:38:02;;;;;;;30.45;5.00;;;;;;;;;;5001110;28;20117;-70
2023/10/25 11:40:38;;;;;;;25.77;5.25;;;;;;;;;;5011292;28;20518;-70
2023/10/25 11:43:04;;;;;;;26.50;5.00;;;;;;;;;;4998151;28;20673;-70
2023/10/25 11:45:29;;;;;;;27.23;4.38;;;;;;;;;;4993945;28;20057;-70
2023/10/25 11:47:55;;;;;;;29.87;5.57;;;;;;;;;;4992171;28;20045;-70
2023/10/25 11:50:20;;;;;;;21.10;4.40;;;;;;;;;;5015022;28;20057;-71
2023/10/25 11:52:45;;;;;;;29.37;4.50;;;;;;;;;;5013846;28;20950;-70
2023/10/25 11:55:10;;;;;;;25.67;4.80;;;;;;;;;;5013874;28;20037;-72
2023/10/25 11:57:36;;;;;;;28.57;4.63;;;;;;;;;;5009652;28;20087;-71
2023/10/25 12:00:01;;;;;;;26.50;6.27;;;;;;;;;;5004137;28;20647;-71
2023/10/25 12:02:27;;;;;;;23.92;4.38;;;;;;;;;;5022108;28;20608;-71
2023/10/25 12:04:52;;;;;;;28.27;5.43;;;;;;;;;;5005496;28;20037;-71
2023/10/25 12:07:18;;;;;;;31.35;5.25;;;;;;;;;;4987762;28;20109;-71
2023/10/25 12:09:45;;;;;;;23.92;4.07;;;;;;;;;;5005728;28;20432;-71
2023/10/25 12:12:10;;;;;;;24.55;4.40;;;;;;;;;;5003991;28;20030;-71
2023/10/25 12:14:35;;;;;;;24.58;5.55;;;;;;;;;;5017236;28;20045;-71
2023/10/25 12:17:01;;;;;;;20.70;5.05;;;;;;;;;;4987757;28;20520;-71
2023/10/25 12:19:26;;;;;;;27.30;5.18;;;;;;;;;;5004976;28;20038;-71
2023/10/25 12:21:56;;;;;;;22.17;4.57;;;;;;;;;;4987288;28;20290;-71
2023/10/25 12:24:27;;;;;;;27.40;5.13;;;;;;;;;;5021370;28;20290;-71
2023/10/25 12:26:52;;;;;;;25.02;5.10;;;;;;;;;;5025028;28;20064;-71
2023/10/25 12:29:18;;;;;;;19.52;4.30;;;;;;;;;;5006476;28;20048;-70
2023/10/25 12:31:43;;;;;;;25.83;4.87;;;;;;;;;;5007134;28;20032;-72
2023/10/25 12:34:08;;;;;;;25.35;4.60;;;;;;;;;;4992446;28;20275;-71
2023/10/25 12:36:33;;;;;;;27.38;4.55;;;;;;;;;;5003723;28;20021;-71
2023/10/25 12:38:59;;;;;;;25.07;5.07;;;;;;;;;;4985416;28;20083;-71
2023/10/25 12:41:24;;;;;;;24.00;4.82;;;;;;;;;;4985609;28;20269;-71
2023/10/25 12:43:49;;;;;;;18.03;4.37;;;;;;;;;;4995065;28;20064;-71
2023/10/25 12:46:14;;;;;;;26.10;5.10;;;;;;;;;;5005154;28;20265;-71
2023/10/25 12:48:40;;;;;;;30.67;5.17;;;;;;;;;;4986947;28;20018;-71
2023/10/25 12:51:05;;;;;;;30.10;5.72;;;;;;;;;;5005069;28;20445;-70
2023/10/25 12:53:30;;;;;;;28.27;5.15;;;;;;;;;;4997168;28;20301;-71
2023/10/25 12:55:56;;;;;;;31.87;5.10;;;;;;;;;;5003012;28;20029;-72
2023/10/25 12:58:21;;;;;;;26.03;4.83;;;;;;;;;;4972087;28;20073;-72
2023/10/25 13:00:47;;;;;;;34.65;5.40;;;;;;;;;;4987253;28;20056;-71
2023/10/25 13:03:12;;;;;;;37.08;5.57;;;;;;;;;;4989458;28;20583;-71
2023/10/25 13:05:37;;;;;;;37.07;5.60;;;;;;;;;;5005216;28;20049;-70
2023/10/25 13:08:03;;;;;;;33.27;5.43;;;;;;;;;;5015018;28;20839;-70
2023/10/25 13:10:28;;;;;;;34.83;5.75;;;;;;;;;;5025140;28;20029;-70
2023/10/25 13:12:53;;;;;;;38.63;6.23;;;;;;;;;;5007270;28;20787;-70
2023/10/25 13:15:19;;;;;;;34.88;5.15;;;;;;;;;;5008714;28;20358;-70
2023/10/25 13:17:44;;;;;;;34.70;5.83;;;;;;;;;;5039368;28;20113;-71
2023/10/25 13:20:10;;;;;;;35.50;6.00;;;;;;;;;;5044942;28;20022;-70
2023/10/25 13:22:35;;;;;;;33.97;5.88;;;;;;;;;;5021195;28;20447;-70
2023/10/25 13:25:00;;;;;;;37.90;5.97;;;;;;;;;;5005475;28;20034;-70
2023/10/25 13:27:25;;;;;;;42.30;6.57;;;;;;;;;;5022430;28;20268;-70
2023/10/25 13:29:52;;;;;;;38.40;6.07;;;;;;;;;;5009058;28;20037;-70
2023/10/25 13:32:17;;;;;;;31.20;6.43;;;;;;;;;;5025627;28;20352;-70
2023/10/25 13:34:44;;;;;;;35.83;6.20;;;;;;;;;;5009884;28;20137;-71
2023/10/25 13:37:09;;;;;;;32.40;5.82;;;;;;;;;;5005546;28;20376;-72
2023/10/25 13:39:34;;;;;;;36.07;5.67;;;;;;;;;;4991527;28;20611;-72
2023/10/25 13:42:00;;;;;;;34.70;6.00;;;;;;;;;;5029158;28;20256;-72
2023/10/25 13:44:25;;;;;;;44.33;7.22;;;;;;;;;;5018344;28;20319;-72
2023/10/25 13:46:50;;;;;;;34.57;6.27;;;;;;;;;;5009317;28;20041;-70
2023/10/25 13:49:15;;;;;;;43.23;6.60;;;;;;;;;;4990676;28;21059;-71
2023/10/25 13:51:41;;;;;;;40.07;6.77;;;;;;;;;;5027672;28;20106;-71
2023/10/25 13:54:06;;;;;;;45.90;6.85;;;;;;;;;;5015126;28;20273;-72
2023/10/25 13:56:31;;;;;;;41.70;6.72;;;;;;;;;;4993710;28;20500;-71
2023/10/25 13:58:56;;;;;;;38.07;6.13;;;;;;;;;;4993267;28;20535;-71
2023/10/25 14:01:22;;;;;;;44.97;7.75;;;;;;;;;;5027955;28;20412;-71
2023/10/25 14:03:48;;;;;;;41.95;7.07;;;;;;;;;;5024725;28;20504;-71
2023/10/25 14:06:16;;;;;;;40.43;6.93;;;;;;;;;;5017331;28;20807;-71
2023/10/25 14:08:41;;;;;;;38.22;6.70;;;;;;;;;;4992474;28;20129;-71
2023/10/25 14:11:06;;;;;;;41.93;7.37;;;;;;;;;;4990441;28;20105;-72
2023/10/25 14:13:31;;;;;;;29.27;5.33;;;;;;;;;;4997003;28;20276;-70
2023/10/25 14:15:57;;;;;;;34.43;6.30;;;;;;;;;;5009323;28;20034;-70
2023/10/25 14:18:22;;;;;;;36.83;6.20;;;;;;;;;;5026851;28;20865;-70
2023/10/25 14:20:47;;;;;;;32.80;6.17;;;;;;;;;;5009611;28;20288;-70
2023/10/25 14:23:12;;;;;;;31.93;5.63;;;;;;;;;;5008829;28;20036;-68
2023/10/25 14:25:39;;;;;;;28.80;4.83;;;;;;;;;;5006630;28;20037;-76
2023/10/25 14:28:06;;;;;;;29.02;4.68;;;;;;;;;;4983648;28;20289;-71